RXI789A OEJN-OJAI
Flight info
| Callsign | RXI789A |
|---|---|
| Flight time | 1h 30m |
| Altitude | 40000 |
| Route | MIGDA L677 WEJ M449 MUNRA |
| Aircraft | A35K/H-SDE2E3GHIJ3J4J5LM1ORWXY/LB1D1 |
Departure
| Time | 2026-05-04 15:46 |
|---|---|
| Airport | King Abdulaziz International Airport (OEJN) |
Arrival
| Time | 2026-05-04 17:17 |
|---|---|
| Airport | Queen Alia International Airport (OJAI) |
| Time | Latitude | Longitude | Altitude | Speed | Heading |
|---|---|---|---|---|---|
| 2026-05-04 14:54 | 21.66849 | 39.16945 | 40 ft | 0 kts | 50° |
| 2026-05-04 15:34 | 21.66817 | 39.16906 | 38 ft | 4 kts | 53° |
| 2026-05-04 15:34 | 21.66811 | 39.16884 | 36 ft | 4 kts | 120° |
| 2026-05-04 15:34 | 21.66836 | 39.16858 | 37 ft | 0 kts | 143° |
| 2026-05-04 15:40 | 21.66831 | 39.16862 | 40 ft | 3 kts | 142° |
| 2026-05-04 15:40 | 21.66795 | 39.16890 | 40 ft | 10 kts | 147° |
| 2026-05-04 15:40 | 21.66703 | 39.16937 | 40 ft | 18 kts | 159° |
| 2026-05-04 15:41 | 21.66563 | 39.16979 | 41 ft | 23 kts | 162° |
| 2026-05-04 15:41 | 21.66405 | 39.17020 | 42 ft | 23 kts | 180° |
| 2026-05-04 15:41 | 21.66294 | 39.16941 | 42 ft | 18 kts | 248° |
| 2026-05-04 15:41 | 21.66248 | 39.16814 | 42 ft | 19 kts | 250° |
| 2026-05-04 15:42 | 21.66227 | 39.16749 | 42 ft | 9 kts | 250° |
| 2026-05-04 15:42 | 21.66202 | 39.16673 | 42 ft | 13 kts | 250° |
| 2026-05-04 15:42 | 21.66171 | 39.16585 | 41 ft | 0 kts | 249° |
| 2026-05-04 15:43 | 21.66161 | 39.16555 | 40 ft | 8 kts | 253° |
| 2026-05-04 15:43 | 21.66183 | 39.16471 | 39 ft | 15 kts | 311° |
| 2026-05-04 15:43 | 21.66231 | 39.16444 | 39 ft | 1 kts | 342° |
| 2026-05-04 15:44 | 21.66235 | 39.16442 | 39 ft | 0 kts | 340° |
| 2026-05-04 15:45 | 21.66288 | 39.16421 | 40 ft | 42 kts | 340° |
| 2026-05-04 15:46 | 21.66897 | 39.16179 | 40 ft | 142 kts | 340° |
| 2026-05-04 15:46 | 21.68044 | 39.15720 | 380 ft | 197 kts | 339° |
| 2026-05-04 15:46 | 21.69461 | 39.15130 | 1016 ft | 241 kts | 337° |
| 2026-05-04 15:46 | 21.71079 | 39.14426 | 1661 ft | 257 kts | 339° |
| 2026-05-04 15:47 | 21.72733 | 39.13801 | 2583 ft | 251 kts | 340° |
| 2026-05-04 15:47 | 21.74371 | 39.13195 | 3475 ft | 250 kts | 340° |
| 2026-05-04 15:47 | 21.76024 | 39.12563 | 4308 ft | 254 kts | 339° |
| 2026-05-04 15:47 | 21.77705 | 39.11910 | 4999 ft | 262 kts | 339° |
| 2026-05-04 15:48 | 21.79447 | 39.11228 | 5583 ft | 267 kts | 338° |
| 2026-05-04 15:48 | 21.81206 | 39.10535 | 5922 ft | 272 kts | 338° |
| 2026-05-04 15:48 | 21.84736 | 39.09140 | 6001 ft | 269 kts | 338° |
| 2026-05-04 15:49 | 21.86495 | 39.08445 | 5996 ft | 268 kts | 338° |
| 2026-05-04 15:49 | 21.88244 | 39.07754 | 6005 ft | 267 kts | 338° |
| 2026-05-04 15:49 | 21.89967 | 39.07071 | 6005 ft | 269 kts | 338° |
| 2026-05-04 15:49 | 21.91695 | 39.06310 | 6004 ft | 268 kts | 334° |
| 2026-05-04 15:50 | 21.93398 | 39.05468 | 6002 ft | 271 kts | 334° |
| 2026-05-04 15:50 | 21.95111 | 39.04624 | 6004 ft | 271 kts | 334° |
| 2026-05-04 15:50 | 21.96817 | 39.03794 | 6002 ft | 269 kts | 335° |
| 2026-05-04 15:50 | 21.98528 | 39.02971 | 6002 ft | 268 kts | 334° |
| 2026-05-04 15:51 | 22.00226 | 39.02157 | 5920 ft | 266 kts | 334° |
| 2026-05-04 15:51 | 22.01913 | 39.01351 | 5876 ft | 266 kts | 334° |
| 2026-05-04 15:51 | 22.03621 | 39.00533 | 6210 ft | 270 kts | 334° |
| 2026-05-04 15:51 | 22.05328 | 38.99712 | 6913 ft | 273 kts | 334° |
| 2026-05-04 15:52 | 22.07072 | 38.98875 | 7691 ft | 277 kts | 334° |
| 2026-05-04 15:52 | 22.08825 | 38.98036 | 8563 ft | 276 kts | 334° |
| 2026-05-04 15:52 | 22.10606 | 38.97183 | 9321 ft | 283 kts | 334° |
| 2026-05-04 15:52 | 22.12412 | 38.96319 | 10144 ft | 286 kts | 333° |
| 2026-05-04 15:53 | 22.14285 | 38.95417 | 10549 ft | 307 kts | 333° |
| 2026-05-04 15:53 | 22.16310 | 38.94444 | 10868 ft | 328 kts | 334° |
| 2026-05-04 15:53 | 22.18450 | 38.93417 | 11166 ft | 346 kts | 334° |
| 2026-05-04 15:53 | 22.20695 | 38.92347 | 11678 ft | 356 kts | 334° |
| 2026-05-04 15:54 | 22.22973 | 38.91263 | 12333 ft | 361 kts | 334° |
| 2026-05-04 15:54 | 22.25266 | 38.90169 | 12991 ft | 368 kts | 333° |
| 2026-05-04 15:54 | 22.27621 | 38.89047 | 13685 ft | 373 kts | 333° |
| 2026-05-04 15:54 | 22.29976 | 38.87918 | 14554 ft | 369 kts | 333° |
| 2026-05-04 15:55 | 22.32322 | 38.86791 | 15260 ft | 371 kts | 333° |
| 2026-05-04 15:55 | 22.34698 | 38.85648 | 15814 ft | 378 kts | 334° |
| 2026-05-04 15:55 | 22.37112 | 38.84490 | 16432 ft | 381 kts | 332° |
| 2026-05-04 15:55 | 22.39552 | 38.83316 | 17092 ft | 385 kts | 333° |
| 2026-05-04 15:56 | 22.41980 | 38.82150 | 17736 ft | 389 kts | 333° |
| 2026-05-04 15:56 | 22.44498 | 38.80938 | 18332 ft | 394 kts | 333° |
| 2026-05-04 15:56 | 22.46984 | 38.79743 | 18885 ft | 398 kts | 333° |
| 2026-05-04 15:56 | 22.49521 | 38.78522 | 19482 ft | 401 kts | 333° |
| 2026-05-04 15:57 | 22.52087 | 38.77287 | 20101 ft | 405 kts | 333° |
| 2026-05-04 15:57 | 22.54671 | 38.76043 | 20727 ft | 408 kts | 333° |
| 2026-05-04 15:57 | 22.57272 | 38.74791 | 21344 ft | 411 kts | 333° |
| 2026-05-04 15:57 | 22.59900 | 38.73525 | 21949 ft | 415 kts | 332° |
| 2026-05-04 15:58 | 22.62545 | 38.72250 | 22547 ft | 419 kts | 332° |
| 2026-05-04 15:58 | 22.65225 | 38.70961 | 23156 ft | 423 kts | 333° |
| 2026-05-04 15:58 | 22.67909 | 38.69727 | 23694 ft | 427 kts | 334° |
| 2026-05-04 15:58 | 22.70669 | 38.68508 | 24220 ft | 431 kts | 334° |
| 2026-05-04 15:59 | 22.73458 | 38.67293 | 24736 ft | 434 kts | 334° |
| 2026-05-04 15:59 | 22.76266 | 38.66071 | 25262 ft | 437 kts | 333° |
| 2026-05-04 15:59 | 22.79100 | 38.64832 | 25802 ft | 440 kts | 333° |
| 2026-05-04 15:59 | 22.81944 | 38.63580 | 26337 ft | 443 kts | 333° |
| 2026-05-04 16:00 | 22.84813 | 38.62310 | 26854 ft | 447 kts | 332° |
| 2026-05-04 16:00 | 22.87701 | 38.61027 | 27366 ft | 450 kts | 332° |
| 2026-05-04 16:00 | 22.90607 | 38.59735 | 27911 ft | 453 kts | 331° |
| 2026-05-04 16:00 | 22.93530 | 38.58433 | 28430 ft | 456 kts | 331° |
| 2026-05-04 16:01 | 22.96439 | 38.57137 | 28937 ft | 459 kts | 331° |
| 2026-05-04 16:01 | 22.99402 | 38.55817 | 29424 ft | 462 kts | 331° |
| 2026-05-04 16:01 | 23.02386 | 38.54486 | 29908 ft | 466 kts | 330° |
| 2026-05-04 16:01 | 23.05396 | 38.53144 | 30299 ft | 469 kts | 330° |
| 2026-05-04 16:02 | 23.08430 | 38.51790 | 30681 ft | 473 kts | 330° |
| 2026-05-04 16:02 | 23.11477 | 38.50431 | 31047 ft | 476 kts | 330° |
| 2026-05-04 16:02 | 23.17643 | 38.47679 | 31790 ft | 482 kts | 330° |
| 2026-05-04 16:03 | 23.20756 | 38.46289 | 32143 ft | 485 kts | 330° |
| 2026-05-04 16:03 | 23.23889 | 38.44889 | 32485 ft | 488 kts | 330° |
| 2026-05-04 16:03 | 23.26992 | 38.43501 | 32813 ft | 490 kts | 329° |
| 2026-05-04 16:03 | 23.30153 | 38.42087 | 33136 ft | 493 kts | 329° |
| 2026-05-04 16:04 | 23.33336 | 38.40662 | 33443 ft | 496 kts | 329° |
| 2026-05-04 16:04 | 23.39751 | 38.37788 | 34060 ft | 499 kts | 329° |
| 2026-05-04 16:04 | 23.42946 | 38.36360 | 34507 ft | 496 kts | 329° |
| 2026-05-04 16:05 | 23.46135 | 38.34935 | 35016 ft | 493 kts | 329° |
| 2026-05-04 16:05 | 23.49296 | 38.33522 | 35452 ft | 490 kts | 329° |
| 2026-05-04 16:05 | 23.55533 | 38.30723 | 36249 ft | 486 kts | 329° |
| 2026-05-04 16:06 | 23.58646 | 38.29323 | 36621 ft | 484 kts | 329° |
| 2026-05-04 16:06 | 23.66904 | 38.25606 | 37598 ft | 480 kts | 329° |
| 2026-05-04 16:07 | 23.71027 | 38.23748 | 38058 ft | 478 kts | 329° |
| 2026-05-04 16:07 | 23.80174 | 38.19618 | 38823 ft | 477 kts | 328° |
| 2026-05-04 16:08 | 23.83234 | 38.18233 | 39004 ft | 477 kts | 328° |
| 2026-05-04 16:08 | 23.92439 | 38.14070 | 39535 ft | 477 kts | 328° |
| 2026-05-04 16:09 | 23.98583 | 38.11289 | 39762 ft | 478 kts | 328° |
| 2026-05-04 16:10 | 24.10839 | 38.05734 | 39752 ft | 479 kts | 328° |
| 2026-05-04 16:11 | 24.19417 | 38.00549 | 39745 ft | 465 kts | 317° |
| 2026-05-04 16:11 | 24.22104 | 37.98572 | 39747 ft | 464 kts | 317° |
| 2026-05-04 16:12 | 24.38023 | 37.86567 | 39788 ft | 465 kts | 316° |
| 2026-05-04 16:13 | 24.48716 | 37.78520 | 39833 ft | 466 kts | 316° |
| 2026-05-04 16:14 | 24.59373 | 37.70487 | 39839 ft | 466 kts | 316° |
| 2026-05-04 16:16 | 24.70822 | 37.61832 | 39874 ft | 468 kts | 316° |
| 2026-05-04 16:17 | 24.84207 | 37.51692 | 39897 ft | 469 kts | 316° |
| 2026-05-04 16:18 | 24.94941 | 37.43541 | 39903 ft | 468 kts | 316° |
| 2026-05-04 16:19 | 25.08323 | 37.33352 | 39909 ft | 470 kts | 316° |
| 2026-05-04 16:20 | 25.21723 | 37.23125 | 39940 ft | 470 kts | 316° |
| 2026-05-04 16:22 | 25.35127 | 37.12870 | 39904 ft | 468 kts | 316° |
| 2026-05-04 16:23 | 25.51154 | 37.00558 | 39886 ft | 468 kts | 316° |
| 2026-05-04 16:25 | 25.67091 | 36.88276 | 39894 ft | 466 kts | 316° |
| 2026-05-04 16:26 | 25.85691 | 36.73891 | 39923 ft | 467 kts | 315° |
| 2026-05-04 16:28 | 25.99009 | 36.63556 | 39915 ft | 468 kts | 315° |
| 2026-05-04 16:29 | 26.18378 | 36.50090 | 39926 ft | 494 kts | 334° |
| 2026-05-04 16:30 | 26.27735 | 36.49207 | 39914 ft | 519 kts | 353° |
| 2026-05-04 16:31 | 26.36144 | 36.49698 | 39915 ft | 521 kts | 354° |
| 2026-05-04 16:32 | 26.56650 | 36.50942 | 39931 ft | 521 kts | 353° |
| 2026-05-04 16:33 | 26.71143 | 36.51735 | 39934 ft | 521 kts | 353° |
| 2026-05-04 16:34 | 26.82001 | 36.52335 | 39935 ft | 522 kts | 353° |
| 2026-05-04 16:35 | 27.03711 | 36.53540 | 39947 ft | 522 kts | 353° |
| 2026-05-04 16:36 | 27.14567 | 36.54144 | 39952 ft | 523 kts | 353° |
| 2026-05-04 16:37 | 27.25451 | 36.54750 | 39956 ft | 523 kts | 353° |
| 2026-05-04 16:38 | 27.39943 | 36.55562 | 39969 ft | 523 kts | 353° |
| 2026-05-04 16:39 | 27.58090 | 36.56581 | 39978 ft | 524 kts | 353° |
| 2026-05-04 16:40 | 27.72651 | 36.57403 | 39987 ft | 524 kts | 353° |
| 2026-05-04 16:41 | 27.90826 | 36.58423 | 39981 ft | 525 kts | 353° |
| 2026-05-04 16:43 | 28.09074 | 36.59463 | 39974 ft | 524 kts | 353° |
| 2026-05-04 16:43 | 28.19960 | 36.60081 | 39949 ft | 525 kts | 353° |
| 2026-05-04 16:45 | 28.41633 | 36.60124 | 39935 ft | 506 kts | 341° |
| 2026-05-04 16:46 | 28.58912 | 36.57041 | 39954 ft | 504 kts | 340° |
| 2026-05-04 16:47 | 28.72761 | 36.54549 | 39984 ft | 504 kts | 340° |
| 2026-05-04 16:48 | 28.86573 | 36.52062 | 39988 ft | 504 kts | 340° |
| 2026-05-04 16:49 | 29.00424 | 36.49563 | 40002 ft | 504 kts | 340° |
| 2026-05-04 16:50 | 29.07339 | 36.48315 | 39901 ft | 502 kts | 340° |
| 2026-05-04 16:50 | 29.14204 | 36.47079 | 39785 ft | 502 kts | 340° |
| 2026-05-04 16:51 | 29.21100 | 36.45831 | 39648 ft | 502 kts | 340° |
| 2026-05-04 16:51 | 29.24555 | 36.45204 | 39595 ft | 502 kts | 340° |
| 2026-05-04 16:51 | 29.31456 | 36.43953 | 39464 ft | 502 kts | 340° |
| 2026-05-04 16:52 | 29.38296 | 36.42715 | 39318 ft | 500 kts | 340° |
| 2026-05-04 16:53 | 29.48585 | 36.40854 | 39172 ft | 499 kts | 340° |
| 2026-05-04 16:53 | 29.58872 | 36.38993 | 38970 ft | 499 kts | 340° |
| 2026-05-04 16:54 | 29.62294 | 36.38373 | 38900 ft | 499 kts | 340° |
| 2026-05-04 16:55 | 29.75927 | 36.35844 | 38673 ft | 495 kts | 339° |
| 2026-05-04 16:55 | 29.82701 | 36.34421 | 38512 ft | 495 kts | 338° |
| 2026-05-04 16:56 | 29.89472 | 36.32993 | 38394 ft | 495 kts | 339° |
| 2026-05-04 16:56 | 29.99564 | 36.30906 | 38145 ft | 493 kts | 339° |
| 2026-05-04 16:57 | 30.09694 | 36.28817 | 37902 ft | 493 kts | 339° |
| 2026-05-04 16:58 | 30.19830 | 36.26721 | 37707 ft | 494 kts | 339° |
| 2026-05-04 16:58 | 30.23183 | 36.26044 | 37627 ft | 496 kts | 340° |
| 2026-05-04 16:59 | 30.29989 | 36.24722 | 37470 ft | 496 kts | 340° |
| 2026-05-04 17:00 | 30.43615 | 36.22055 | 35178 ft | 497 kts | 341° |
| 2026-05-04 17:00 | 30.53821 | 36.20049 | 32937 ft | 495 kts | 341° |
| 2026-05-04 17:01 | 30.60545 | 36.18725 | 31420 ft | 492 kts | 341° |
| 2026-05-04 17:01 | 30.67273 | 36.17398 | 30016 ft | 489 kts | 341° |
| 2026-05-04 17:02 | 30.73972 | 36.16074 | 28400 ft | 486 kts | 341° |
| 2026-05-04 17:02 | 30.80621 | 36.14758 | 26766 ft | 483 kts | 341° |
| 2026-05-04 17:03 | 30.83925 | 36.14345 | 25879 ft | 476 kts | 350° |
| 2026-05-04 17:03 | 30.87201 | 36.14351 | 25047 ft | 464 kts | 352° |
| 2026-05-04 17:03 | 30.93424 | 36.14498 | 23385 ft | 438 kts | 352° |
| 2026-05-04 17:04 | 30.99411 | 36.14615 | 21517 ft | 424 kts | 352° |
| 2026-05-04 17:04 | 31.05236 | 36.14720 | 19848 ft | 413 kts | 352° |
| 2026-05-04 17:05 | 31.10930 | 36.14820 | 18495 ft | 410 kts | 352° |
| 2026-05-04 17:05 | 31.16628 | 36.15227 | 16948 ft | 424 kts | 6° |
| 2026-05-04 17:06 | 31.22232 | 36.17651 | 15473 ft | 430 kts | 15° |
| 2026-05-04 17:06 | 31.25000 | 36.18964 | 14757 ft | 429 kts | 15° |
| 2026-05-04 17:07 | 31.30499 | 36.21548 | 13326 ft | 423 kts | 15° |
| 2026-05-04 17:07 | 31.32294 | 36.22389 | 12819 ft | 412 kts | 15° |
| 2026-05-04 17:07 | 31.35770 | 36.24019 | 11895 ft | 399 kts | 15° |
| 2026-05-04 17:07 | 31.38343 | 36.25213 | 11208 ft | 396 kts | 16° |
| 2026-05-04 17:08 | 31.40891 | 36.26399 | 10521 ft | 393 kts | 16° |
| 2026-05-04 17:08 | 31.45879 | 36.28727 | 9122 ft | 384 kts | 17° |
| 2026-05-04 17:08 | 31.48348 | 36.29882 | 8405 ft | 380 kts | 17° |
| 2026-05-04 17:09 | 31.50830 | 36.30766 | 7699 ft | 366 kts | 2° |
| 2026-05-04 17:09 | 31.53275 | 36.30561 | 7204 ft | 343 kts | 339° |
| 2026-05-04 17:09 | 31.55465 | 36.29683 | 7022 ft | 321 kts | 334° |
| 2026-05-04 17:10 | 31.59367 | 36.28047 | 7000 ft | 279 kts | 334° |
| 2026-05-04 17:10 | 31.64672 | 36.25925 | 6994 ft | 263 kts | 335° |
| 2026-05-04 17:11 | 31.66352 | 36.25274 | 6992 ft | 246 kts | 335° |
| 2026-05-04 17:11 | 31.67947 | 36.24659 | 6738 ft | 240 kts | 334° |
| 2026-05-04 17:11 | 31.71210 | 36.23372 | 5472 ft | 256 kts | 335° |
| 2026-05-04 17:12 | 31.72923 | 36.22700 | 4809 ft | 261 kts | 336° |
| 2026-05-04 17:12 | 31.75737 | 36.20731 | 4026 ft | 214 kts | 292° |
| 2026-05-04 17:13 | 31.75456 | 36.16213 | 4008 ft | 178 kts | 262° |
| 2026-05-04 17:14 | 31.74850 | 36.12010 | 4008 ft | 160 kts | 263° |
| 2026-05-04 17:14 | 31.74661 | 36.10730 | 4019 ft | 159 kts | 263° |
| 2026-05-04 17:14 | 31.74291 | 36.08176 | 3764 ft | 154 kts | 263° |
| 2026-05-04 17:15 | 31.74121 | 36.06997 | 3550 ft | 143 kts | 263° |
| 2026-05-04 17:15 | 31.73812 | 36.04850 | 3154 ft | 131 kts | 262° |
| 2026-05-04 17:16 | 31.73506 | 36.02722 | 2775 ft | 128 kts | 261° |
| 2026-05-04 17:16 | 31.73061 | 35.99607 | 2423 ft | 118 kts | 261° |
| 2026-05-04 17:17 | 31.72974 | 35.98982 | 2425 ft | 34 kts | 260° |
| 2026-05-04 17:17 | 31.72927 | 35.98870 | 2424 ft | 8 kts | 185° |
| 2026-05-04 17:18 | 31.72857 | 35.98876 | 2423 ft | 12 kts | 176° |
| 2026-05-04 17:18 | 31.72670 | 35.98900 | 2423 ft | 15 kts | 171° |
| 2026-05-04 17:19 | 31.72493 | 35.98789 | 2423 ft | 16 kts | 227° |
| 2026-05-04 17:19 | 31.72443 | 35.98758 | 2422 ft | 7 kts | 200° |
| 2026-05-04 17:20 | 31.72429 | 35.98743 | 2420 ft | 0 kts | 158° |